Neshkoro, Wisconsin
Current Conditions -  °F | °C
As of 1:56 AM on Sunday 26 Oct 2014 (Local Time) from KY50 Reporting Station
Overcast Overcast  
Wind Chill:   Ceiling: 100
Heat Index:   Visibility: 10mi
Dew Point: -2°   Wind: 7mph
Humidity: 65%   Direction: 300°WNW
Pressure: 30"   Gusts: NA
Location:  43.97°N, 89.22°W
Report Text: KY50 260656Z AUTO 30006KT 10SM OVC001 04/M02 A3000 RMK AO2 TSNO T00441016 SLP159
Loading
Personal Weather Stations






























Interactive Weather Map
Tropical Storm Tracking
New forecast layout! Learn more

10-Day Weather Forecast

Advertisements
Track Severe Weather on mobile